Time;durP1;ratioP1;P1;durP2;ratioP2;P2;SDS_P1;SDS_P2;PMS_P1;PMS_P2;Temp;Humidity;BMP_temperature;BMP_pressure;BME280_temperature;BME280_humidity;BME280_pressure;Samples;Min_cycle;Max_cycle;Signal;HPM_P1;HPM_P2
2022/06/04 00:02:15;;;;;;;39.00;35.00;;;16.30;99.90;;;;;;5070979;28;20471;-67
2022/06/04 00:04:42;;;;;;;39.20;35.50;;;16.30;99.90;;;;;;5070949;28;20458;-67
2022/06/04 00:07:12;;;;;;;35.10;31.87;;;16.30;99.90;;;;;;5071250;28;20447;-67
2022/06/04 00:15:28;;;;;;;38.17;34.23;;;16.20;99.90;;;;;;5070688;28;20494;-70
2022/06/04 00:17:56;;;;;;;34.07;30.80;;;16.30;99.90;;;;;;5071057;28;20423;-69
2022/06/04 00:20:23;;;;;;;32.53;29.53;;;16.20;99.90;;;;;;5069589;28;20475;-70
2022/06/04 00:22:50;;;;;;;33.00;29.90;;;16.20;99.90;;;;;;5070727;28;20458;-70
2022/06/04 00:25:17;;;;;;;33.50;30.50;;;16.10;99.90;;;;;;5070369;28;20456;-69
2022/06/04 00:27:45;;;;;;;34.53;31.30;;;16.10;99.90;;;;;;5070745;28;20459;-69
2022/06/04 00:30:12;;;;;;;37.33;33.93;;;16.10;99.90;;;;;;5069482;28;21285;-68
2022/06/04 00:32:39;;;;;;;37.10;33.63;;;16.20;99.90;;;;;;5070475;28;20454;-69
2022/06/04 00:35:07;;;;;;;36.53;33.03;;;16.10;99.90;;;;;;5070292;28;21062;-69
2022/06/04 00:37:35;;;;;;;35.13;31.97;;;16.10;99.90;;;;;;5070414;28;20487;-69
2022/06/04 00:40:02;;;;;;;37.13;33.70;;;16.00;99.90;;;;;;5069551;28;21163;-67
2022/06/04 00:42:29;;;;;;;36.10;32.77;;;16.00;99.90;;;;;;5070326;28;20455;-69
2022/06/04 00:45:31;;;;;;;35.10;31.80;;;15.90;99.90;;;;;;5069943;28;20822;-69
2022/06/04 00:48:00;;;;;;;36.07;32.57;;;16.00;99.90;;;;;;5070408;28;20443;-67
2022/06/04 00:50:30;;;;;;;35.40;32.17;;;15.90;99.90;;;;;;5069509;28;20465;-69
2022/06/04 00:53:01;;;;;;;32.13;29.00;;;15.90;99.90;;;;;;5070123;28;20439;-67
2022/06/04 00:55:33;;;;;;;34.80;31.70;;;15.90;99.90;;;;;;5069778;28;20439;-70
2022/06/04 00:58:26;;;;;;;37.13;33.63;;;15.80;99.90;;;;;;5070171;28;20487;-69
2022/06/04 01:00:56;;;;;;;40.03;36.13;;;15.70;99.90;;;;;;5069237;28;20475;-69
2022/06/04 01:03:35;;;;;;;37.63;34.07;;;15.60;99.90;;;;;;5069544;28;20443;-70
2022/06/04 01:06:21;;;;;;;36.60;33.23;;;15.70;99.90;;;;;;5069670;28;21142;-69
2022/06/04 01:09:18;;;;;;;41.90;37.87;;;15.70;99.90;;;;;;5070022;28;20454;-69
2022/06/04 01:12:11;;;;;;;43.20;38.80;;;15.70;99.90;;;;;;5069191;28;20904;-69
2022/06/04 01:14:50;;;;;;;43.90;39.67;;;15.70;99.90;;;;;;5069749;28;20447;-70
2022/06/04 01:17:21;;;;;;;40.77;36.77;;;15.80;99.90;;;;;;5069835;28;20489;-67
2022/06/04 01:19:58;;;;;;;37.07;33.50;;;15.70;99.90;;;;;;5069038;28;20447;-68
2022/06/04 01:23:02;;;;;;;32.40;29.60;;;15.70;99.90;;;;;;5069820;28;20470;-69
2022/06/04 01:25:45;;;;;;;32.87;29.40;;;15.70;99.90;;;;;;5069206;28;20459;-69
2022/06/04 01:28:16;;;;;;;34.10;30.90;;;15.60;99.90;;;;;;5069934;28;20454;-68
2022/06/04 01:30:46;;;;;;;35.40;32.20;;;15.60;99.90;;;;;;5068606;28;20458;-69
2022/06/04 01:33:18;;;;;;;36.37;33.03;;;15.60;99.90;;;;;;5069783;28;21301;-69
2022/06/04 01:35:51;;;;;;;36.83;33.37;;;15.60;99.90;;;;;;5069336;28;20444;-69
2022/06/04 01:38:24;;;;;;;33.07;30.13;;;15.60;99.90;;;;;;5070056;28;20534;-69
2022/06/04 01:41:06;;;;;;;33.83;30.63;;;15.50;99.90;;;;;;5069055;28;20463;-70
2022/06/04 01:43:39;;;;;;;34.30;31.00;;;15.50;99.90;;;;;;5070170;28;20560;-70
2022/06/04 01:46:12;;;;;;;33.43;29.83;;;15.50;99.90;;;;;;5069667;28;20443;-69
2022/06/04 01:48:43;;;;;;;31.80;28.80;;;15.40;99.90;;;;;;5069533;28;20454;-70
2022/06/04 01:51:12;;;;;;;33.87;30.77;;;15.40;99.90;;;;;;5068721;28;20462;-69
2022/06/04 01:53:41;;;;;;;32.30;29.03;;;15.40;99.90;;;;;;5069462;28;20447;-69
2022/06/04 01:56:16;;;;;;;29.87;27.20;;;15.30;99.90;;;;;;5069307;28;20482;-69
2022/06/04 01:58:49;;;;;;;33.23;30.33;;;15.20;99.90;;;;;;5069622;28;20445;-69
2022/06/04 02:01:23;;;;;;;33.00;29.60;;;15.10;99.90;;;;;;5068457;28;20466;-70
2022/06/04 02:03:55;;;;;;;32.13;29.13;;;15.10;99.90;;;;;;5069367;28;20435;-71
2022/06/04 02:06:26;;;;;;;36.57;33.07;;;15.10;99.90;;;;;;5069077;28;20505;-70
2022/06/04 02:08:58;;;;;;;34.20;30.90;;;15.20;99.90;;;;;;5069259;28;20442;-70
2022/06/04 02:11:25;;;;;;;37.70;34.10;;;15.20;99.90;;;;;;5068616;28;20455;-69
2022/06/04 02:13:58;;;;;;;38.63;34.83;;;15.30;99.90;;;;;;5069168;28;20928;-68
2022/06/04 02:16:30;;;;;;;36.07;32.60;;;15.10;99.90;;;;;;5072172;28;20481;-68
2022/06/04 02:18:58;;;;;;;36.53;33.00;;;15.10;99.90;;;;;;5073232;28;20925;-69
2022/06/04 02:21:27;;;;;;;38.83;35.20;;;15.20;99.90;;;;;;5072448;28;20455;-68
2022/06/04 02:23:55;;;;;;;34.33;31.07;;;15.10;99.90;;;;;;5073226;28;20443;-68
2022/06/04 02:26:22;;;;;;;33.43;30.20;;;15.10;99.90;;;;;;5072783;28;20442;-68
2022/06/04 02:28:49;;;;;;;34.20;31.10;;;15.00;99.90;;;;;;5073191;28;20446;-68
2022/06/04 02:31:26;;;;;;;31.67;28.80;;;15.00;99.90;;;;;;5072428;28;20459;-69
2022/06/04 02:33:59;;;;;;;30.57;27.77;;;15.10;99.90;;;;;;5073267;28;20445;-68
2022/06/04 02:36:33;;;;;;;29.60;26.87;;;15.00;99.90;;;;;;5072207;28;21002;-69
2022/06/04 02:39:08;;;;;;;30.90;27.90;;;14.90;99.90;;;;;;5073009;28;20488;-68
2022/06/04 02:41:40;;;;;;;31.57;28.87;;;14.90;99.90;;;;;;5071572;28;20462;-68
2022/06/04 02:44:15;;;;;;;29.90;27.00;;;14.80;99.90;;;;;;5072773;28;20431;-68
2022/06/04 02:46:47;;;;;;;29.93;26.90;;;14.70;99.90;;;;;;5072527;28;20474;-69
2022/06/04 02:49:19;;;;;;;32.07;28.97;;;14.70;99.90;;;;;;5072694;28;20521;-69
2022/06/04 02:51:49;;;;;;;33.07;30.03;;;14.70;99.90;;;;;;5071669;28;20467;-69
2022/06/04 02:54:21;;;;;;;34.00;30.60;;;14.80;99.90;;;;;;5072341;28;21199;-67
2022/06/04 02:56:51;;;;;;;34.07;30.93;;;14.80;99.90;;;;;;5072567;28;20479;-69
2022/06/04 02:59:20;;;;;;;35.90;32.57;;;14.80;99.90;;;;;;5072658;28;20445;-70
2022/06/04 03:01:52;;;;;;;35.67;32.27;;;14.80;99.90;;;;;;5071414;28;20467;-69
2022/06/04 03:04:19;;;;;;;36.40;32.77;;;14.80;99.90;;;;;;5072119;28;20451;-70
2022/06/04 03:06:46;;;;;;;35.90;32.50;;;14.80;99.90;;;;;;5072608;28;20526;-68
2022/06/04 03:09:17;;;;;;;34.70;31.47;;;14.80;99.90;;;;;;5072240;28;20447;-69
2022/06/04 03:11:46;;;;;;;38.60;34.73;;;14.70;99.90;;;;;;5071910;28;20503;-68
2022/06/04 03:14:15;;;;;;;38.43;34.80;;;14.70;99.90;;;;;;5072239;28;20480;-67
2022/06/04 03:16:45;;;;;;;38.00;34.13;;;14.70;99.90;;;;;;5072257;28;20474;-67
2022/06/04 03:19:13;;;;;;;38.53;34.93;;;14.70;99.90;;;;;;5071947;28;20522;-68
2022/06/04 03:21:42;;;;;;;36.57;32.90;;;14.70;99.90;;;;;;5071445;28;20461;-68
2022/06/04 03:24:10;;;;;;;29.17;26.17;;;14.70;99.90;;;;;;5072007;28;20451;-69
2022/06/04 03:26:38;;;;;;;31.43;28.23;;;14.70;99.90;;;;;;5071778;28;20538;-69
2022/06/04 03:29:05;;;;;;;31.83;28.37;;;14.70;99.90;;;;;;5072032;28;20442;-67
2022/06/04 03:31:32;;;;;;;27.53;24.83;;;14.80;99.90;;;;;;5071042;28;20458;-69
2022/06/04 03:33:59;;;;;;;27.67;25.07;;;14.80;99.90;;;;;;5072056;28;20465;-68
2022/06/04 03:36:27;;;;;;;27.40;24.57;;;14.80;99.90;;;;;;5071494;28;20873;-68
2022/06/04 03:38:55;;;;;;;26.90;24.13;;;14.80;99.90;;;;;;5071926;28;20454;-68
2022/06/04 03:41:22;;;;;;;26.17;23.80;;;14.80;99.90;;;;;;5070794;28;20470;-68
2022/06/04 03:43:52;;;;;;;24.90;22.60;;;14.90;99.90;;;;;;5071779;28;21164;-68
2022/06/04 03:46:19;;;;;;;26.97;24.30;;;14.90;99.90;;;;;;5071044;28;20708;-69
2022/06/04 03:48:46;;;;;;;25.10;22.50;;;14.90;99.90;;;;;;5071940;28;20439;-69
2022/06/04 03:51:13;;;;;;;25.57;23.17;;;15.00;99.90;;;;;;5070803;28;20463;-68
2022/06/04 03:53:41;;;;;;;30.73;27.73;;;15.00;99.90;;;;;;5071668;28;20538;-69
2022/06/04 03:56:09;;;;;;;28.20;25.53;;;15.10;99.90;;;;;;5071167;28;20487;-69
2022/06/04 03:58:35;;;;;;;25.93;23.33;;;15.10;99.90;;;;;;5071310;28;20561;-68
2022/06/04 04:01:13;;;;;;;26.90;24.20;;;15.00;99.90;;;;;;5070335;28;20479;-69
2022/06/04 04:03:40;;;;;;;25.53;23.10;;;15.00;99.90;;;;;;5064302;28;20450;-68
2022/06/04 04:06:06;;;;;;;24.03;21.53;;;15.10;99.90;;;;;;5067317;28;20450;-70
2022/06/04 04:08:33;;;;;;;24.90;22.63;;;15.20;99.90;;;;;;5069910;28;20443;-68
2022/06/04 04:11:02;;;;;;;25.03;22.73;;;15.20;99.90;;;;;;5069454;28;20490;-68
2022/06/04 04:13:29;;;;;;;24.70;22.40;;;15.20;99.90;;;;;;5070371;28;20450;-68
2022/06/04 04:15:56;;;;;;;24.73;22.50;;;15.30;99.90;;;;;;5070080;28;20534;-70
2022/06/04 04:18:23;;;;;;;24.53;22.23;;;15.40;99.90;;;;;;5068957;28;20562;-69
2022/06/04 04:20:49;;;;;;;24.40;21.90;;;15.40;99.90;;;;;;5069273;28;20508;-69
2022/06/04 04:23:16;;;;;;;23.30;21.20;;;15.50;99.90;;;;;;5070067;28;20534;-69
2022/06/04 04:25:43;;;;;;;24.13;21.83;;;15.60;99.90;;;;;;5069433;28;20447;-70
2022/06/04 04:28:12;;;;;;;24.07;21.90;;;15.60;99.90;;;;;;5070332;28;20458;-68
2022/06/04 04:30:39;;;;;;;21.30;19.10;;;15.50;99.90;;;;;;5069226;28;20463;-68
2022/06/04 04:33:07;;;;;;;23.70;21.30;;;15.60;99.90;;;;;;5063931;28;20446;-68
2022/06/04 04:35:36;;;;;;;24.13;19.60;;;15.60;99.90;;;;;;5069906;28;20449;-68
2022/06/04 04:38:03;;;;;;;20.67;18.53;;;15.70;99.90;;;;;;5069884;28;21022;-67
2022/06/04 04:40:31;;;;;;;21.57;19.57;;;15.70;99.90;;;;;;5069418;28;20980;-68
2022/06/04 04:42:59;;;;;;;21.83;19.90;;;15.80;99.90;;;;;;5070503;28;20786;-67
2022/06/04 04:45:29;;;;;;;29.40;20.50;;;15.80;99.90;;;;;;5069996;28;20998;-70
2022/06/04 04:47:56;;;;;;;21.47;19.57;;;15.80;99.90;;;;;;5066955;28;20490;-68
2022/06/04 04:50:26;;;;;;;22.60;20.53;;;16.00;99.90;;;;;;5068339;28;20458;-66
2022/06/04 04:52:54;;;;;;;21.93;19.70;;;16.10;99.90;;;;;;5074438;28;20448;-66
2022/06/04 04:55:22;;;;;;;21.50;19.43;;;16.30;99.90;;;;;;5073031;28;20439;-67
2022/06/04 04:57:49;;;;;;;19.67;17.87;;;16.30;99.90;;;;;;5070156;28;20483;-67
2022/06/04 05:00:17;;;;;;;18.30;16.73;;;16.40;99.90;;;;;;5069421;28;20886;-66
2022/06/04 05:02:45;;;;;;;17.23;15.53;;;16.70;99.90;;;;;;5069196;28;21161;-67
2022/06/04 05:05:14;;;;;;;15.10;13.80;;;16.90;99.90;;;;;;5069036;28;20973;-66
2022/06/04 05:07:41;;;;;;;17.00;15.30;;;17.00;99.90;;;;;;5069298;28;20432;-68
2022/06/04 05:10:09;;;;;;;15.10;13.70;;;17.20;99.90;;;;;;5068704;28;20435;-66
2022/06/04 05:12:36;;;;;;;15.60;14.13;;;17.50;99.90;;;;;;5069273;28;20808;-67
2022/06/04 05:15:04;;;;;;;14.87;13.40;;;18.00;99.90;;;;;;5068914;28;20445;-67
2022/06/04 05:17:31;;;;;;;13.77;12.37;;;18.20;99.90;;;;;;5069163;28;20561;-69
2022/06/04 05:19:59;;;;;;;14.73;12.40;;;18.50;99.90;;;;;;5068109;28;20450;-67
2022/06/04 05:22:26;;;;;;;13.00;11.70;;;18.60;99.90;;;;;;5069239;28;20540;-66
2022/06/04 05:24:53;;;;;;;13.03;11.83;;;18.80;99.90;;;;;;5068515;28;20469;-68
2022/06/04 05:27:20;;;;;;;13.30;12.10;;;18.80;99.90;;;;;;5069069;28;20448;-67
2022/06/04 05:29:47;;;;;;;12.87;11.57;;;18.70;99.90;;;;;;5067970;28;20457;-67
2022/06/04 05:32:14;;;;;;;13.90;12.70;;;18.70;99.90;;;;;;5068701;28;20533;-69
2022/06/04 05:34:40;;;;;;;13.03;11.87;;;18.60;99.90;;;;;;5068597;28;20451;-67
2022/06/04 05:37:09;;;;;;;12.10;11.10;;;18.80;99.90;;;;;;5069038;28;20500;-66
2022/06/04 05:39:36;;;;;;;12.80;11.60;;;18.90;99.90;;;;;;5068787;28;20961;-68
2022/06/04 05:42:05;;;;;;;13.03;11.80;;;18.90;99.90;;;;;;5067981;28;20466;-68
2022/06/04 05:44:31;;;;;;;12.80;11.60;;;19.00;99.90;;;;;;5065739;28;20439;-68
2022/06/04 05:46:59;;;;;;;12.97;11.87;;;19.00;99.90;;;;;;5068135;28;20446;-69
2022/06/04 05:49:26;;;;;;;13.33;12.23;;;19.00;99.90;;;;;;5068430;28;20445;-69
2022/06/04 05:51:53;;;;;;;14.10;12.80;;;19.10;99.90;;;;;;5078068;28;20985;-68
2022/06/04 05:54:21;;;;;;;13.63;12.43;;;19.40;99.90;;;;;;5068347;28;20546;-69
2022/06/04 05:56:50;;;;;;;12.53;11.53;;;19.50;99.90;;;;;;5088221;28;20517;-68
2022/06/04 05:59:19;;;;;;;12.23;11.13;;;19.50;99.90;;;;;;5088883;28;20477;-69
2022/06/04 06:01:46;;;;;;;17.10;12.73;;;19.60;99.90;;;;;;5049334;28;1115473;-69
2022/06/04 06:04:15;;;;;;;12.00;10.90;;;19.50;99.90;;;;;;5089502;28;20453;-69
2022/06/04 06:06:44;;;;;;;12.20;11.03;;;19.50;99.90;;;;;;5069089;28;20462;-68
2022/06/04 06:09:13;;;;;;;13.57;12.30;;;19.60;99.90;;;;;;5066841;28;20455;-69
2022/06/04 06:11:45;;;;;;;12.60;11.60;;;19.60;99.90;;;;;;5067571;28;20546;-68
2022/06/04 06:14:13;;;;;;;12.83;11.63;;;19.30;99.90;;;;;;5069053;28;20446;-69
2022/06/04 06:16:41;;;;;;;14.73;13.10;;;19.10;99.90;;;;;;5067829;28;20455;-65
2022/06/04 06:19:08;;;;;;;13.13;12.03;;;18.80;99.90;;;;;;5066326;28;20478;-67
2022/06/04 06:21:36;;;;;;;18.80;14.73;;;18.50;99.90;;;;;;5068144;28;20459;-68
2022/06/04 06:24:04;;;;;;;18.93;15.27;;;18.20;99.90;;;;;;5065764;28;20447;-68
2022/06/04 06:26:33;;;;;;;22.67;17.17;;;17.90;99.90;;;;;;5068491;28;20891;-69
2022/06/04 06:29:04;;;;;;;16.87;15.27;;;17.70;99.90;;;;;;5069281;28;20439;-70
2022/06/04 06:31:32;;;;;;;15.67;14.27;;;17.50;99.90;;;;;;5068346;28;20458;-69
2022/06/04 06:33:59;;;;;;;17.90;16.10;;;17.50;99.90;;;;;;5065438;28;20447;-70
2022/06/04 06:36:28;;;;;;;15.93;14.40;;;17.40;99.90;;;;;;5063371;28;20845;-70
2022/06/04 06:38:55;;;;;;;16.20;14.50;;;17.30;99.90;;;;;;5068852;28;20490;-70
2022/06/04 06:41:24;;;;;;;19.27;17.30;;;17.40;99.90;;;;;;5068109;28;20462;-70
2022/06/04 06:43:52;;;;;;;18.20;16.40;;;17.30;99.90;;;;;;5069093;28;20443;-68
2022/06/04 06:46:22;;;;;;;18.87;17.03;;;17.40;99.90;;;;;;5068333;28;20450;-70
2022/06/04 06:48:51;;;;;;;19.90;15.63;;;17.50;99.90;;;;;;5068880;28;20965;-70
2022/06/04 06:51:23;;;;;;;17.53;16.00;;;17.60;99.90;;;;;;5067571;28;20471;-70
2022/06/04 06:53:50;;;;;;;18.50;16.90;;;17.80;99.90;;;;;;5068822;28;20454;-66
2022/06/04 06:56:18;;;;;;;20.80;18.73;;;18.00;99.90;;;;;;5068831;28;20450;-69
2022/06/04 06:58:46;;;;;;;20.20;17.30;;;18.10;99.90;;;;;;5069231;28;20479;-70
2022/06/04 07:01:14;;;;;;;19.67;16.73;;;18.10;99.90;;;;;;5069072;28;20510;-70
2022/06/04 07:03:43;;;;;;;19.13;17.43;;;18.00;99.90;;;;;;5072764;28;20439;-70
2022/06/04 07:06:12;;;;;;;18.33;16.63;;;18.20;99.90;;;;;;5066941;28;20892;-71
2022/06/04 07:08:41;;;;;;;19.90;17.00;;;18.10;99.90;;;;;;5068690;28;20470;-70
2022/06/04 07:11:08;;;;;;;20.93;18.83;;;18.10;99.90;;;;;;5066596;28;20477;-70
2022/06/04 07:13:35;;;;;;;21.67;19.57;;;18.10;99.90;;;;;;5071460;28;20455;-69
2022/06/04 07:16:02;;;;;;;21.70;19.53;;;18.00;99.90;;;;;;5072395;28;20555;-71
2022/06/04 07:18:29;;;;;;;22.23;20.03;;;18.10;99.90;;;;;;5071743;28;20648;-74
2022/06/04 07:20:59;;;;;;;21.27;18.93;;;18.10;99.90;;;;;;5071571;28;20475;-72
2022/06/04 07:23:26;;;;;;;21.60;19.60;;;18.20;99.90;;;;;;5063246;28;20500;-70
2022/06/04 07:25:53;;;;;;;22.43;19.37;;;18.20;99.90;;;;;;5069481;28;20823;-71
2022/06/04 07:28:20;;;;;;;19.60;17.70;;;18.30;99.90;;;;;;5071533;28;20434;-71
2022/06/04 07:30:47;;;;;;;20.60;18.50;;;18.40;99.90;;;;;;5060970;28;20898;-72
2022/06/04 07:33:13;;;;;;;20.63;18.83;;;18.60;99.90;;;;;;5050556;28;20444;-71
2022/06/04 07:35:47;;;;;;;19.60;17.73;;;18.80;99.90;;;;;;5051363;28;20547;-72
2022/06/04 07:38:15;;;;;;;18.87;17.10;;;19.00;99.90;;;;;;5051901;28;20479;-70
2022/06/04 07:40:43;;;;;;;18.67;16.33;;;19.30;99.90;;;;;;5050784;28;20542;-70
2022/06/04 07:43:10;;;;;;;18.37;16.73;;;19.60;99.90;;;;;;5052073;28;20456;-70
2022/06/04 07:45:37;;;;;;;19.10;17.40;;;19.80;99.90;;;;;;5051122;28;20440;-72
2022/06/04 07:48:04;;;;;;;17.10;15.70;;;20.10;99.90;;;;;;5051456;28;20440;-71
2022/06/04 07:50:32;;;;;;;16.30;14.90;;;20.40;99.90;;;;;;5050880;28;20479;-70
2022/06/04 07:52:59;;;;;;;17.20;15.80;;;20.70;99.90;;;;;;5051634;28;20455;-73
2022/06/04 07:55:28;;;;;;;15.67;14.27;;;20.80;99.90;;;;;;5050790;28;20454;-70
2022/06/04 07:57:56;;;;;;;16.60;15.20;;;20.60;99.90;;;;;;5056219;28;20484;-71
2022/06/04 08:00:23;;;;;;;17.80;16.10;;;20.80;99.90;;;;;;5050730;28;20479;-70
2022/06/04 08:02:50;;;;;;;18.27;16.77;;;20.90;99.90;;;;;;5052930;28;20446;-70
2022/06/04 08:05:17;;;;;;;18.70;16.93;;;21.20;99.90;;;;;;5066465;28;20439;-71
2022/06/04 08:07:45;;;;;;;16.87;15.33;;;21.30;99.90;;;;;;5066886;28;20451;-71
2022/06/04 08:10:13;;;;;;;16.17;14.87;;;21.90;99.90;;;;;;5065544;28;20455;-71
2022/06/04 08:12:43;;;;;;;16.93;15.63;;;22.50;99.90;;;;;;5065831;28;20825;-71
2022/06/04 08:15:11;;;;;;;16.87;15.47;;;23.00;99.90;;;;;;5063777;28;21004;-72
2022/06/04 08:17:38;;;;;;;16.63;15.13;;;23.30;99.90;;;;;;5067596;28;20435;-72
2022/06/04 08:20:06;;;;;;;15.63;14.23;;;23.70;99.90;;;;;;5066082;28;20965;-72
2022/06/04 08:22:33;;;;;;;13.93;12.77;;;24.10;99.90;;;;;;5068124;28;21148;-71
2022/06/04 08:25:00;;;;;;;15.30;14.10;;;24.00;99.90;;;;;;5068103;28;20453;-71
2022/06/04 08:27:26;;;;;;;14.83;13.53;;;24.50;99.90;;;;;;5069158;28;20443;-72
2022/06/04 08:29:55;;;;;;;16.20;14.83;;;24.60;99.90;;;;;;5068683;28;20469;-73
2022/06/04 08:32:21;;;;;;;16.17;14.73;;;25.10;99.90;;;;;;5069450;28;20989;-72
2022/06/04 08:34:48;;;;;;;14.53;13.33;;;25.00;99.90;;;;;;5070485;28;20451;-71
2022/06/04 08:37:16;;;;;;;14.40;13.20;;;25.20;99.90;;;;;;5070721;28;20439;-72
2022/06/04 08:39:43;;;;;;;16.10;14.70;;;25.30;99.90;;;;;;5070328;28;20475;-71
2022/06/04 08:42:38;;;;;;;15.83;14.50;;;25.60;99.90;;;;;;5070389;28;20857;-71
2022/06/04 08:45:12;;;;;;;16.23;14.97;;;25.50;99.90;;;;;;5070449;28;20866;-71
2022/06/04 08:47:44;;;;;;;14.90;13.60;;;25.40;99.90;;;;;;5070670;28;20450;-71
2022/06/04 08:50:17;;;;;;;14.90;13.70;;;25.50;99.90;;;;;;5069546;28;20952;-72
2022/06/04 08:52:47;;;;;;;15.43;14.23;;;25.50;99.90;;;;;;5070470;28;20453;-71
2022/06/04 08:58:26;;;;;;;14.10;13.00;;;25.80;99.90;;;;;;5070300;28;20468;-72
2022/06/04 09:00:59;;;;;;;14.00;12.83;;;26.00;99.90;;;;;;5069489;28;20480;-70
2022/06/04 09:03:32;;;;;;;14.27;12.77;;;26.50;99.90;;;;;;5070471;28;20450;-72
2022/06/04 09:06:11;;;;;;;14.37;13.00;;;26.80;99.90;;;;;;5070136;28;20863;-71
2022/06/04 09:08:50;;;;;;;15.00;13.70;;;26.10;99.90;;;;;;5070379;28;20435;-72
2022/06/04 09:11:21;;;;;;;15.70;14.50;;;25.10;99.90;;;;;;5069224;28;20470;-71
2022/06/04 09:13:58;;;;;;;14.53;13.43;;;24.70;99.90;;;;;;5070315;28;20443;-72
2022/06/04 09:16:32;;;;;;;14.43;13.23;;;25.00;99.90;;;;;;5069711;28;20443;-71
2022/06/04 09:19:02;;;;;;;15.30;14.10;;;25.50;99.90;;;;;;5070143;28;20483;-72
2022/06/04 09:21:35;;;;;;;15.63;14.43;;;25.60;99.90;;;;;;5069125;28;20471;-72
2022/06/04 09:24:01;;;;;;;15.63;14.37;;;25.90;99.90;;;;;;5070128;28;20443;-72
2022/06/04 09:26:34;;;;;;;16.70;15.40;;;26.00;99.90;;;;;;5069817;28;20455;-71
2022/06/04 09:29:22;;;;;;;14.37;13.03;;;26.30;99.90;;;;;;5070153;28;20439;-72
2022/06/04 09:31:59;;;;;;;14.60;13.50;;;26.50;99.90;;;;;;5066763;28;21194;-71
2022/06/04 09:34:30;;;;;;;15.03;13.93;;;26.60;99.90;;;;;;5069722;28;20446;-71
2022/06/04 09:36:57;;;;;;;14.50;13.30;;;26.20;99.90;;;;;;5070081;28;20447;-71
2022/06/04 09:39:26;;;;;;;15.97;14.77;;;26.00;99.90;;;;;;5069970;28;20489;-71
2022/06/04 09:41:55;;;;;;;19.37;17.87;;;25.90;99.90;;;;;;5068968;28;21042;-71
2022/06/04 09:44:24;;;;;;;17.27;15.90;;;25.50;99.90;;;;;;5069610;28;20451;-70
2022/06/04 09:46:57;;;;;;;19.20;17.70;;;25.00;99.90;;;;;;5070201;28;20450;-69
2022/06/04 09:49:36;;;;;;;18.93;17.03;;;24.30;99.90;;;;;;5070108;28;20474;-71
2022/06/04 09:52:15;;;;;;;16.73;15.33;;;23.70;99.90;;;;;;5069330;28;20467;-71
2022/06/04 09:54:42;;;;;;;17.80;16.40;;;23.40;99.90;;;;;;5069566;28;20447;-71
2022/06/04 09:57:26;;;;;;;17.30;15.50;;;23.40;99.90;;;;;;5069840;28;20450;-70
2022/06/04 09:59:55;;;;;;;18.30;16.87;;;23.40;99.90;;;;;;5068932;28;21004;-71
2022/06/04 10:02:24;;;;;;;19.90;18.20;;;23.30;99.90;;;;;;5069462;28;20961;-71
2022/06/04 10:05:02;;;;;;;21.47;19.70;;;23.20;99.90;;;;;;5069331;28;20446;-71
2022/06/04 10:07:33;;;;;;;21.83;19.93;;;23.10;99.90;;;;;;5069561;28;20464;-71
2022/06/04 10:10:09;;;;;;;23.13;21.27;;;23.20;99.90;;;;;;5068819;28;20458;-71
2022/06/04 10:15:31;;;;;;;25.17;22.97;;;22.50;99.90;;;;;;5069206;28;20496;-71
2022/06/04 10:18:07;;;;;;;25.20;23.20;;;22.40;99.90;;;;;;5069374;28;20535;-71
2022/06/04 10:20:35;;;;;;;24.73;22.40;;;22.20;99.90;;;;;;5068785;28;20854;-70
2022/06/04 10:23:01;;;;;;;27.20;24.53;;;22.20;99.90;;;;;;5069433;28;20449;-71
2022/06/04 10:25:38;;;;;;;25.60;23.13;;;22.10;99.90;;;;;;5069033;28;20530;-71
2022/06/04 10:28:22;;;;;;;25.90;23.80;;;22.00;99.90;;;;;;5069397;28;20446;-70
2022/06/04 10:30:57;;;;;;;24.93;22.90;;;21.90;99.90;;;;;;5068592;28;20485;-72
2022/06/04 10:33:36;;;;;;;27.40;24.90;;;21.70;99.90;;;;;;5069157;28;21006;-70
2022/06/04 10:36:22;;;;;;;24.83;22.73;;;21.70;99.90;;;;;;5069252;28;20466;-70
2022/06/04 10:39:00;;;;;;;26.43;24.13;;;21.80;99.90;;;;;;5072927;28;21023;-70
2022/06/04 10:41:36;;;;;;;26.70;24.40;;;21.80;99.90;;;;;;5072305;28;20459;-71
2022/06/04 10:44:20;;;;;;;26.23;23.83;;;21.70;99.90;;;;;;5072973;28;20978;-70
2022/06/04 10:47:00;;;;;;;29.50;26.83;;;21.90;99.90;;;;;;5073083;28;20446;-70
2022/06/04 10:49:56;;;;;;;29.40;26.50;;;21.80;99.90;;;;;;5073152;28;20445;-71
2022/06/04 10:52:26;;;;;;;29.50;27.00;;;21.70;99.90;;;;;;5072855;28;20454;-69
2022/06/04 10:55:01;;;;;;;31.30;28.43;;;21.70;99.90;;;;;;5072418;28;20439;-70
2022/06/04 10:57:32;;;;;;;30.47;27.87;;;21.60;99.90;;;;;;5072699;28;21153;-70
2022/06/04 11:00:04;;;;;;;32.73;29.87;;;21.60;99.90;;;;;;5071932;28;20486;-71
2022/06/04 11:02:38;;;;;;;29.80;27.27;;;21.70;99.90;;;;;;5072796;28;20439;-70
2022/06/04 11:05:13;;;;;;;30.37;27.87;;;21.70;99.90;;;;;;5072184;28;20538;-70
2022/06/04 11:07:52;;;;;;;30.47;27.77;;;21.80;99.90;;;;;;5072429;28;20936;-70
2022/06/04 11:10:24;;;;;;;29.87;27.40;;;21.70;99.90;;;;;;5071822;28;20528;-69
2022/06/04 11:12:57;;;;;;;31.00;28.50;;;21.60;99.90;;;;;;5072386;28;20525;-71
2022/06/04 11:15:30;;;;;;;31.17;28.67;;;21.50;99.90;;;;;;5072055;28;20470;-71
2022/06/04 11:18:03;;;;;;;29.10;26.40;;;21.40;99.90;;;;;;5072433;28;20531;-71
2022/06/04 11:20:34;;;;;;;28.53;26.13;;;21.60;99.90;;;;;;5071620;28;20494;-71
2022/06/04 11:23:17;;;;;;;28.87;26.47;;;22.00;99.90;;;;;;5072584;28;20835;-71
2022/06/04 11:25:49;;;;;;;26.00;23.70;;;22.00;99.90;;;;;;5071861;28;20457;-70
2022/06/04 11:28:24;;;;;;;26.17;24.17;;;22.10;99.90;;;;;;5072160;28;20485;-71
2022/06/04 11:31:00;;;;;;;26.97;24.57;;;22.00;99.90;;;;;;5071199;28;20518;-70
2022/06/04 11:33:43;;;;;;;27.07;24.67;;;21.80;99.90;;;;;;5072232;28;20468;-71
2022/06/04 11:36:22;;;;;;;28.03;25.53;;;21.60;99.90;;;;;;5071711;28;20827;-71
2022/06/04 11:39:06;;;;;;;24.80;22.70;;;21.60;99.90;;;;;;5071855;28;20939;-70
2022/06/04 11:41:39;;;;;;;25.53;23.33;;;21.90;99.90;;;;;;5071413;28;20459;-70
2022/06/04 11:44:28;;;;;;;23.00;21.07;;;21.90;99.90;;;;;;5071967;28;20438;-71
2022/06/04 11:47:15;;;;;;;21.40;19.40;;;22.10;99.90;;;;;;5071886;28;20447;-71
2022/06/04 11:49:49;;;;;;;20.97;19.27;;;22.30;99.90;;;;;;5071680;28;20481;-70
2022/06/04 11:52:24;;;;;;;25.27;23.03;;;22.50;99.90;;;;;;5071735;28;20466;-72
2022/06/04 11:55:17;;;;;;;22.30;20.50;;;22.60;99.90;;;;;;5071482;28;20530;-72
2022/06/04 11:57:54;;;;;;;20.70;19.00;;;22.60;99.90;;;;;;5071683;28;20447;-71
2022/06/04 12:00:28;;;;;;;19.80;18.10;;;22.90;99.90;;;;;;5070798;28;20569;-71
2022/06/04 12:03:03;;;;;;;23.20;21.30;;;23.70;99.90;;;;;;5071812;28;20450;-70
2022/06/04 12:05:41;;;;;;;20.10;18.30;;;24.00;99.90;;;;;;5071210;28;20476;-71
2022/06/04 12:08:12;;;;;;;20.77;18.90;;;24.20;99.90;;;;;;5071341;28;20945;-70
2022/06/04 12:10:49;;;;;;;21.27;19.47;;;24.30;99.90;;;;;;5070852;28;20528;-72
2022/06/04 12:13:23;;;;;;;19.53;17.93;;;24.70;99.90;;;;;;5071596;28;20825;-71
2022/06/04 12:15:53;;;;;;;19.33;17.73;;;25.60;99.90;;;;;;5071230;28;20530;-70
2022/06/04 12:18:26;;;;;;;18.97;17.53;;;25.90;99.90;;;;;;5071579;28;20941;-71
2022/06/04 12:26:34;;;;;;;16.90;15.50;;;27.00;99.90;;;;;;5070911;28;20967;-70
2022/06/04 12:29:02;;;;;;;19.30;17.77;;;28.30;99.90;;;;;;5071146;28;20455;-70
2022/06/04 12:31:34;;;;;;;19.47;18.03;;;29.20;99.90;;;;;;5070265;28;20545;-71
2022/06/04 12:34:02;;;;;;;16.57;15.27;;;29.00;99.90;;;;;;5071147;28;20478;-71
2022/06/04 12:36:32;;;;;;;15.90;14.70;;;28.70;99.90;;;;;;5070938;28;20451;-68
2022/06/04 12:39:05;;;;;;;18.10;16.70;;;29.30;99.90;;;;;;5070946;28;20545;-71
2022/06/04 12:41:48;;;;;;;18.50;17.10;;;29.90;99.90;;;;;;5070040;28;20459;-71
2022/06/04 12:44:23;;;;;;;16.63;15.43;;;30.00;99.90;;;;;;5069002;28;20542;-70
2022/06/04 12:46:52;;;;;;;16.50;15.10;;;30.10;99.90;;;;;;5070906;28;20881;-70
2022/06/04 12:49:36;;;;;;;13.80;12.73;;;30.40;99.90;;;;;;5070581;28;20434;-71
2022/06/04 12:52:17;;;;;;;13.53;12.43;;;31.00;99.90;;;;;;5069627;28;20832;-69
2022/06/04 12:54:50;;;;;;;14.03;12.80;;;31.50;99.90;;;;;;5070314;28;20537;-69
2022/06/04 12:57:36;;;;;;;15.93;14.53;;;32.00;99.90;;;;;;5070491;28;20449;-68
2022/06/04 13:00:26;;;;;;;14.70;13.40;;;32.30;99.90;;;;;;5068912;28;21416;-70
2022/06/04 13:03:15;;;;;;;15.07;13.97;;;32.20;99.60;;;;;;5070624;28;20462;-70
2022/06/04 13:05:58;;;;;;;11.90;10.80;;;32.80;99.90;;;;;;5070002;28;20447;-71